Time;durP1;ratioP1;P1;durP2;ratioP2;P2;SDS_P1;SDS_P2;PMS_P1;PMS_P2;Temp;Humidity;BMP_temperature;BMP_pressure;BME280_temperature;BME280_humidity;BME280_pressure;Samples;Min_cycle;Max_cycle;Signal;HPM_P1;HPM_P2
2020/12/27 00:02:25;;;;;;;594.10;549.47;;;;;;;;;;5078417;28;20190;-64
2020/12/27 00:04:51;;;;;;;709.80;650.23;;;;;;;;;;5071144;28;20193;-63
2020/12/27 00:07:19;;;;;;;513.83;478.03;;;;;;;;;;5073566;28;20189;-62
2020/12/27 00:09:46;;;;;;;610.17;564.10;;;;;;;;;;5069305;28;20194;-64
2020/12/27 00:12:14;;;;;;;574.50;531.23;;;;;;;;;;5071809;28;20209;-61
2020/12/27 00:14:42;;;;;;;510.70;474.90;;;;;;;;;;5067936;27;20265;-61
2020/12/27 00:17:10;;;;;;;725.00;661.10;;;;;;;;;;5077158;28;20193;-62
2020/12/27 00:19:37;;;;;;;830.03;754.57;;;;;;;;;;5079773;28;20302;-62
2020/12/27 14:02:06;;;;;;;0.10;0.10;;;;;;;;;;5094624;28;20257;-62
2020/12/27 14:07:36;;;;;;;1.20;1.20;;;;;;;;;;5093052;28;20541;-62
2020/12/27 14:13:06;;;;;;;0.10;0.10;;;;;;;;;;5092487;28;20690;-62
2020/12/27 14:18:36;;;;;;;4.97;2.67;;;;;;;;;;5092179;28;20220;-62
2020/12/27 14:24:06;;;;;;;2.23;0.50;;;;;;;;;;5092231;28;20582;-62
2020/12/27 14:29:36;;;;;;;0.10;0.10;;;;;;;;;;5092209;28;20189;-62
2020/12/27 14:35:06;;;;;;;0.10;0.10;;;;;;;;;;5091378;28;20222;-62
2020/12/27 14:40:36;;;;;;;0.10;0.10;;;;;;;;;;5090955;28;20282;-62
2020/12/27 14:46:07;;;;;;;0.00;0.00;;;;;;;;;;5090864;28;20172;-62
2020/12/27 14:51:37;;;;;;;0.27;0.27;;;;;;;;;;5090786;28;20182;-62
2020/12/27 14:57:07;;;;;;;3.70;0.20;;;;;;;;;;5091009;28;20239;-61
2020/12/27 15:02:36;;;;;;;0.00;0.00;;;;;;;;;;5090830;28;20197;-61
2020/12/27 15:08:06;;;;;;;32.37;1.10;;;;;;;;;;5088208;28;20235;-61
2020/12/27 15:13:36;;;;;;;0.00;0.00;;;;;;;;;;5077184;28;20184;-63
2020/12/27 15:19:06;;;;;;;0.00;0.00;;;;;;;;;;5076851;28;20199;-63
2020/12/27 15:24:36;;;;;;;0.00;0.00;;;;;;;;;;5076788;28;20643;-62
2020/12/27 15:30:07;;;;;;;0.00;0.00;;;;;;;;;;5076305;28;20217;-63
2020/12/27 15:35:37;;;;;;;0.00;0.00;;;;;;;;;;5075794;28;20221;-63
2020/12/27 15:41:07;;;;;;;2.00;0.33;;;;;;;;;;5076060;28;20246;-62
2020/12/27 15:46:37;;;;;;;0.27;0.27;;;;;;;;;;5075644;28;20190;-62
2020/12/27 15:52:06;;;;;;;6.83;6.40;;;;;;;;;;5075469;28;20214;-62
2020/12/27 15:57:36;;;;;;;0.10;0.10;;;;;;;;;;5072004;28;20221;-62
2020/12/27 16:03:06;;;;;;;0.10;0.10;;;;;;;;;;5075297;28;20216;-62
2020/12/27 16:08:37;;;;;;;0.00;0.00;;;;;;;;;;5075258;28;20231;-61
2020/12/27 16:14:07;;;;;;;0.10;0.10;;;;;;;;;;5074950;28;20229;-61
2020/12/27 16:19:39;;;;;;;0.00;0.00;;;;;;;;;;5074780;28;20177;-61
2020/12/27 16:25:08;;;;;;;0.00;0.00;;;;;;;;;;5075272;28;20182;-62
2020/12/27 16:30:38;;;;;;;0.20;0.20;;;;;;;;;;5074678;28;20186;-62
2020/12/27 16:36:15;;;;;;;0.00;0.00;;;;;;;;;;5074899;28;20309;-60
2020/12/27 16:41:45;;;;;;;0.00;0.00;;;;;;;;;;5074578;28;20178;-60
2020/12/27 16:47:15;;;;;;;0.23;0.23;;;;;;;;;;5074555;28;20534;-61
2020/12/27 16:52:45;;;;;;;0.00;0.00;;;;;;;;;;5074673;28;20224;-61
2020/12/27 16:58:15;;;;;;;0.10;0.10;;;;;;;;;;5067934;28;20233;-61
2020/12/27 17:03:45;;;;;;;0.10;0.10;;;;;;;;;;5073900;28;20189;-61
2020/12/27 17:09:15;;;;;;;0.10;0.10;;;;;;;;;;5074178;28;20270;-62
2020/12/27 17:14:45;;;;;;;0.00;0.00;;;;;;;;;;5073990;28;20196;-61
2020/12/27 17:20:15;;;;;;;0.00;0.00;;;;;;;;;;5078510;28;20206;-61
2020/12/27 17:25:45;;;;;;;0.00;0.00;;;;;;;;;;5081918;28;20213;-61
2020/12/27 17:31:19;;;;;;;0.00;0.00;;;;;;;;;;5053929;28;20190;-62
2020/12/27 17:33:46;;;;;;;0.10;0.10;;;;;;;;;;5060707;28;20183;-63
2020/12/27 17:36:13;;;;;;;0.00;0.00;;;;;;;;;;5059052;28;20184;-61
2020/12/27 17:38:39;;;;;;;2.17;0.27;;;;;;;;;;5061311;28;20214;-61
2020/12/27 17:41:06;;;;;;;2.10;0.70;;;;;;;;;;5061255;28;20220;-61
2020/12/27 17:43:33;;;;;;;0.07;0.07;;;;;;;;;;5054042;28;20179;-62
2020/12/27 17:46:00;;;;;;;0.00;0.00;;;;;;;;;;5037302;28;20551;-62
2020/12/27 17:48:26;;;;;;;0.00;0.00;;;;;;;;;;5044365;28;20183;-64
2020/12/27 17:50:53;;;;;;;0.00;0.00;;;;;;;;;;5044957;28;20180;-63
2020/12/27 17:53:20;;;;;;;0.10;0.10;;;;;;;;;;5052090;28;20609;-62
2020/12/27 17:55:47;;;;;;;0.00;0.00;;;;;;;;;;5043377;28;20232;-63
2020/12/27 17:58:14;;;;;;;0.00;0.00;;;;;;;;;;5048155;28;20301;-63
2020/12/27 18:00:42;;;;;;;0.00;0.00;;;;;;;;;;5050671;28;20192;-62
2020/12/27 18:03:09;;;;;;;0.87;0.20;;;;;;;;;;5048679;28;20630;-63
2020/12/27 18:05:37;;;;;;;0.33;0.33;;;;;;;;;;5052491;28;20187;-62
2020/12/27 18:08:04;;;;;;;0.00;0.00;;;;;;;;;;5054352;28;20173;-63
2020/12/27 18:10:30;;;;;;;0.00;0.00;;;;;;;;;;5049128;28;20554;-62
2020/12/27 18:12:57;;;;;;;0.00;0.00;;;;;;;;;;5051857;28;20183;-62
2020/12/27 18:15:24;;;;;;;0.10;0.10;;;;;;;;;;5052123;28;20180;-62
2020/12/27 18:17:50;;;;;;;0.00;0.00;;;;;;;;;;5053627;28;20274;-62
2020/12/27 18:20:18;;;;;;;0.10;0.10;;;;;;;;;;5052202;28;20689;-62
2020/12/27 18:22:45;;;;;;;0.10;0.10;;;;;;;;;;5052082;28;20191;-61
2020/12/27 18:25:16;;;;;;;0.03;0.03;;;;;;;;;;5052868;28;20282;-63
2020/12/27 18:27:43;;;;;;;0.10;0.10;;;;;;;;;;5051504;28;20184;-63
2020/12/27 18:30:10;;;;;;;0.30;0.30;;;;;;;;;;5054875;28;20194;-62
2020/12/27 18:32:36;;;;;;;0.10;0.10;;;;;;;;;;5051418;28;20602;-63
2020/12/27 18:35:03;;;;;;;0.10;0.10;;;;;;;;;;5050686;28;20183;-62
2020/12/27 18:37:30;;;;;;;0.10;0.10;;;;;;;;;;5050679;28;20211;-62
2020/12/27 18:39:56;;;;;;;0.10;0.10;;;;;;;;;;5049522;28;20179;-63
2020/12/27 18:42:23;;;;;;;0.10;0.10;;;;;;;;;;5053331;28;20187;-63
2020/12/27 18:44:50;;;;;;;0.20;0.20;;;;;;;;;;5053262;28;20191;-62
2020/12/27 18:47:17;;;;;;;0.10;0.10;;;;;;;;;;5057138;28;20231;-62
2020/12/27 18:49:45;;;;;;;0.10;0.10;;;;;;;;;;5050732;28;20168;-63
2020/12/27 18:52:12;;;;;;;0.10;0.10;;;;;;;;;;5058007;28;20281;-62
2020/12/27 18:54:39;;;;;;;0.10;0.10;;;;;;;;;;5058478;28;20229;-63
2020/12/27 18:57:06;;;;;;;0.10;0.10;;;;;;;;;;5062472;28;20291;-62
2020/12/27 18:59:32;;;;;;;0.00;0.00;;;;;;;;;;5061239;28;20230;-63
2020/12/27 19:01:59;;;;;;;0.10;0.10;;;;;;;;;;5056710;28;20186;-64
2020/12/27 19:04:26;;;;;;;0.10;0.10;;;;;;;;;;5056173;28;20186;-62
2020/12/27 19:06:53;;;;;;;0.07;0.07;;;;;;;;;;5062191;28;20179;-62
2020/12/27 19:09:28;;;;;;;0.10;0.10;;;;;;;;;;5059115;28;20194;-62
2020/12/27 19:11:55;;;;;;;0.00;0.00;;;;;;;;;;5056653;28;20625;-62
2020/12/27 19:14:23;;;;;;;0.00;0.00;;;;;;;;;;5046617;28;20223;-63
2020/12/27 19:16:50;;;;;;;0.00;0.00;;;;;;;;;;5058664;28;20210;-62
2020/12/27 19:19:17;;;;;;;0.03;0.03;;;;;;;;;;5051726;28;20290;-63
2020/12/27 19:21:44;;;;;;;0.00;0.00;;;;;;;;;;5057345;28;20192;-63
2020/12/27 19:24:11;;;;;;;0.00;0.00;;;;;;;;;;5055890;28;20195;-63
2020/12/27 19:26:37;;;;;;;0.03;0.03;;;;;;;;;;5065133;22;20175;-63
2020/12/27 19:29:04;;;;;;;0.10;0.10;;;;;;;;;;5018921;28;20191;-63
2020/12/27 19:31:32;;;;;;;0.10;0.10;;;;;;;;;;5025732;28;20240;-63
2020/12/27 19:33:59;;;;;;;0.00;0.00;;;;;;;;;;5017863;28;20260;-63
2020/12/27 19:36:25;;;;;;;0.00;0.00;;;;;;;;;;5016010;28;20185;-63
2020/12/27 19:38:52;;;;;;;0.00;0.00;;;;;;;;;;5018071;28;20199;-64
2020/12/27 19:41:19;;;;;;;0.00;0.00;;;;;;;;;;5008924;28;20184;-64
2020/12/27 19:43:47;;;;;;;0.00;0.00;;;;;;;;;;5012367;28;20190;-64
2020/12/27 19:46:20;;;;;;;0.00;0.00;;;;;;;;;;5019893;28;20226;-64
2020/12/27 19:48:47;;;;;;;0.10;0.10;;;;;;;;;;5019674;28;20706;-65
2020/12/27 19:51:14;;;;;;;0.00;0.00;;;;;;;;;;5019828;28;20651;-63
2020/12/27 19:53:41;;;;;;;0.00;0.00;;;;;;;;;;5021264;28;20198;-63
2020/12/27 19:56:10;;;;;;;0.00;0.00;;;;;;;;;;5016962;28;20198;-63
2020/12/27 19:58:37;;;;;;;0.00;0.00;;;;;;;;;;5023075;28;20227;-64
2020/12/27 20:01:03;;;;;;;0.00;0.00;;;;;;;;;;5018202;28;20225;-63
2020/12/27 20:03:30;;;;;;;0.00;0.00;;;;;;;;;;5016094;28;20189;-63
2020/12/27 20:05:59;;;;;;;0.00;0.00;;;;;;;;;;5016151;28;20189;-65
2020/12/27 20:08:27;;;;;;;0.00;0.00;;;;;;;;;;5019035;28;20180;-64
2020/12/27 20:10:54;;;;;;;0.00;0.00;;;;;;;;;;5022395;28;20172;-63
2020/12/27 20:13:21;;;;;;;0.00;0.00;;;;;;;;;;5019054;28;20189;-64
2020/12/27 20:15:48;;;;;;;0.00;0.00;;;;;;;;;;5032969;28;20268;-65
2020/12/27 20:18:14;;;;;;;0.00;0.00;;;;;;;;;;5006646;28;20659;-63
2020/12/27 20:20:41;;;;;;;0.00;0.00;;;;;;;;;;5013479;28;20191;-63
2020/12/27 20:23:08;;;;;;;0.00;0.00;;;;;;;;;;5020822;28;20176;-64
2020/12/27 20:25:34;;;;;;;0.00;0.00;;;;;;;;;;5021121;28;20508;-63
2020/12/27 20:28:01;;;;;;;0.00;0.00;;;;;;;;;;5022114;28;20224;-63
2020/12/27 20:30:27;;;;;;;0.00;0.00;;;;;;;;;;5011905;28;20196;-63
2020/12/27 20:32:54;;;;;;;0.00;0.00;;;;;;;;;;5011971;28;20234;-63
2020/12/27 20:35:21;;;;;;;0.00;0.00;;;;;;;;;;5019610;28;20785;-63
2020/12/27 20:37:48;;;;;;;0.00;0.00;;;;;;;;;;5021162;28;20802;-62
2020/12/27 20:40:15;;;;;;;0.00;0.00;;;;;;;;;;5020549;28;20204;-63
2020/12/27 20:42:41;;;;;;;0.00;0.00;;;;;;;;;;5021452;28;20173;-63
2020/12/27 20:45:10;;;;;;;0.00;0.00;;;;;;;;;;5021267;28;20184;-63
2020/12/27 20:47:36;;;;;;;0.00;0.00;;;;;;;;;;5021363;28;20199;-64
2020/12/27 20:50:04;;;;;;;0.00;0.00;;;;;;;;;;5020247;28;20212;-62
2020/12/27 20:52:30;;;;;;;0.00;0.00;;;;;;;;;;5022912;28;20175;-64
2020/12/27 20:54:57;;;;;;;0.00;0.00;;;;;;;;;;5020334;28;20291;-64
2020/12/27 20:57:24;;;;;;;0.00;0.00;;;;;;;;;;5021599;28;20232;-64
2020/12/27 20:59:50;;;;;;;0.00;0.00;;;;;;;;;;5021060;28;20181;-63
2020/12/27 21:02:17;;;;;;;0.00;0.00;;;;;;;;;;5020897;28;20187;-64
2020/12/27 21:04:44;;;;;;;0.00;0.00;;;;;;;;;;5020917;28;20955;-63
2020/12/27 21:07:10;;;;;;;0.00;0.00;;;;;;;;;;5022497;28;20179;-62
2020/12/27 21:09:37;;;;;;;0.00;0.00;;;;;;;;;;5019838;28;20188;-64
2020/12/27 21:12:04;;;;;;;0.00;0.00;;;;;;;;;;5020983;28;20192;-63
2020/12/27 21:14:30;;;;;;;0.00;0.00;;;;;;;;;;5020489;28;20206;-63
2020/12/27 21:16:57;;;;;;;0.00;0.00;;;;;;;;;;5023522;28;20326;-64
2020/12/27 21:19:24;;;;;;;0.00;0.00;;;;;;;;;;5021009;28;20705;-64
2020/12/27 21:21:50;;;;;;;0.00;0.00;;;;;;;;;;5021077;28;20186;-61
2020/12/27 21:24:18;;;;;;;0.00;0.00;;;;;;;;;;5021789;28;20265;-62
2020/12/27 21:26:45;;;;;;;0.00;0.00;;;;;;;;;;5021880;28;20191;-62
2020/12/27 21:29:12;;;;;;;0.00;0.00;;;;;;;;;;5022125;28;20184;-61
2020/12/27 21:31:39;;;;;;;0.00;0.00;;;;;;;;;;5023485;28;20191;-62
2020/12/27 21:34:06;;;;;;;0.00;0.00;;;;;;;;;;5022652;28;20564;-61
2020/12/27 21:36:33;;;;;;;0.00;0.00;;;;;;;;;;5021472;28;20194;-62
2020/12/27 21:38:59;;;;;;;0.00;0.00;;;;;;;;;;5021899;28;20249;-62
2020/12/27 21:41:26;;;;;;;0.00;0.00;;;;;;;;;;5022335;28;20198;-62
2020/12/27 21:43:53;;;;;;;0.00;0.00;;;;;;;;;;5020837;28;20637;-64
2020/12/27 21:46:19;;;;;;;0.00;0.00;;;;;;;;;;5019110;28;20188;-61
2020/12/27 21:48:47;;;;;;;0.00;0.00;;;;;;;;;;5020769;28;20187;-63
2020/12/27 21:51:15;;;;;;;0.00;0.00;;;;;;;;;;5023809;28;20729;-63
2020/12/27 21:53:42;;;;;;;0.00;0.00;;;;;;;;;;5021783;28;20183;-63
2020/12/27 21:56:11;;;;;;;0.00;0.00;;;;;;;;;;5024603;28;21024;-62
2020/12/27 21:58:38;;;;;;;0.00;0.00;;;;;;;;;;5020555;28;20309;-62
2020/12/27 22:01:05;;;;;;;0.00;0.00;;;;;;;;;;5021992;28;20266;-62
2020/12/27 22:03:31;;;;;;;0.00;0.00;;;;;;;;;;5021181;28;20190;-62
2020/12/27 22:05:58;;;;;;;0.00;0.00;;;;;;;;;;5020268;28;20187;-62
2020/12/27 22:08:25;;;;;;;0.00;0.00;;;;;;;;;;5024196;28;20183;-62
2020/12/27 22:10:51;;;;;;;0.00;0.00;;;;;;;;;;5021290;28;20182;-61
2020/12/27 22:13:18;;;;;;;0.00;0.00;;;;;;;;;;5021365;28;20545;-63
2020/12/27 22:15:47;;;;;;;0.00;0.00;;;;;;;;;;5021824;28;20180;-62
2020/12/27 22:18:14;;;;;;;0.00;0.00;;;;;;;;;;5021825;28;20221;-63
2020/12/27 22:20:42;;;;;;;0.00;0.00;;;;;;;;;;5027741;28;20182;-62
2020/12/27 22:23:10;;;;;;;0.00;0.00;;;;;;;;;;5024914;28;20219;-63
2020/12/27 22:25:37;;;;;;;0.00;0.00;;;;;;;;;;5025050;28;20184;-64
2020/12/27 22:28:04;;;;;;;0.03;0.03;;;;;;;;;;5024019;28;20258;-64
2020/12/27 22:30:30;;;;;;;0.00;0.00;;;;;;;;;;5024850;28;20182;-62
2020/12/27 22:32:57;;;;;;;0.00;0.00;;;;;;;;;;5024230;28;20187;-63
2020/12/27 22:35:24;;;;;;;0.00;0.00;;;;;;;;;;5022952;28;20280;-64
2020/12/27 22:37:50;;;;;;;0.00;0.00;;;;;;;;;;5019829;28;20216;-63
2020/12/27 22:40:17;;;;;;;0.00;0.00;;;;;;;;;;5004651;28;20266;-63
2020/12/27 22:42:44;;;;;;;0.00;0.00;;;;;;;;;;5003034;28;20511;-63
2020/12/27 22:45:12;;;;;;;0.00;0.00;;;;;;;;;;5005117;28;20275;-62
2020/12/27 22:47:39;;;;;;;0.00;0.00;;;;;;;;;;5009946;28;20904;-62
2020/12/27 22:50:06;;;;;;;0.00;0.00;;;;;;;;;;5025507;28;20194;-63
2020/12/27 22:52:32;;;;;;;0.00;0.00;;;;;;;;;;5025033;28;20201;-62
2020/12/27 22:54:59;;;;;;;0.00;0.00;;;;;;;;;;5024674;28;20195;-63
2020/12/27 22:57:27;;;;;;;0.00;0.00;;;;;;;;;;5024366;28;20991;-62
2020/12/27 23:00:00;;;;;;;0.00;0.00;;;;;;;;;;5025090;28;20653;-62
2020/12/27 23:02:28;;;;;;;0.00;0.00;;;;;;;;;;5024059;28;20182;-61
2020/12/27 23:04:55;;;;;;;0.07;0.07;;;;;;;;;;5024362;28;20248;-61
2020/12/27 23:07:24;;;;;;;0.00;0.00;;;;;;;;;;5025146;28;20191;-61
2020/12/27 23:09:51;;;;;;;0.00;0.00;;;;;;;;;;5023967;28;20263;-62
2020/12/27 23:12:18;;;;;;;0.00;0.00;;;;;;;;;;5026468;28;20224;-62
2020/12/27 23:14:46;;;;;;;0.17;0.10;;;;;;;;;;5024654;28;20183;-62
2020/12/27 23:17:14;;;;;;;0.00;0.00;;;;;;;;;;5024562;28;20214;-63
2020/12/27 23:19:40;;;;;;;0.10;0.10;;;;;;;;;;5023424;28;20203;-63
2020/12/27 23:22:09;;;;;;;0.00;0.00;;;;;;;;;;5024870;28;20178;-63
2020/12/27 23:24:35;;;;;;;0.00;0.00;;;;;;;;;;5025822;28;20170;-62
2020/12/27 23:27:02;;;;;;;0.00;0.00;;;;;;;;;;5022184;28;20234;-63
2020/12/27 23:29:29;;;;;;;0.00;0.00;;;;;;;;;;5023703;28;20196;-62
2020/12/27 23:31:56;;;;;;;0.00;0.00;;;;;;;;;;5022605;28;20199;-62
2020/12/27 23:34:25;;;;;;;0.00;0.00;;;;;;;;;;5023556;28;20907;-63
2020/12/27 23:36:52;;;;;;;0.00;0.00;;;;;;;;;;5024064;28;20846;-62
2020/12/27 23:39:21;;;;;;;0.00;0.00;;;;;;;;;;5023559;28;20190;-63
2020/12/27 23:41:47;;;;;;;0.00;0.00;;;;;;;;;;5023855;28;20595;-63
2020/12/27 23:44:14;;;;;;;0.00;0.00;;;;;;;;;;5023889;28;20187;-63
2020/12/27 23:46:42;;;;;;;0.00;0.00;;;;;;;;;;5024309;28;20183;-62
2020/12/27 23:49:12;;;;;;;0.00;0.00;;;;;;;;;;5020121;28;20194;-62
2020/12/27 23:51:44;;;;;;;0.77;0.77;;;;;;;;;;5032391;28;20812;-63
2020/12/27 23:54:11;;;;;;;0.00;0.00;;;;;;;;;;5036310;28;20688;-62
2020/12/27 23:56:39;;;;;;;0.10;0.10;;;;;;;;;;5010049;28;20427;-63
2020/12/27 23:59:06;;;;;;;0.00;0.00;;;;;;;;;;5010621;28;20988;-63
